Time;durP1;ratioP1;P1;durP2;ratioP2;P2;SDS_P1;SDS_P2;PMS_P1;PMS_P2;Temp;Humidity;BMP_temperature;BMP_pressure;BME280_temperature;BME280_humidity;BME280_pressure;Samples;Min_cycle;Max_cycle;Signal;HPM_P1;HPM_P2
2021/12/25 00:01:42;;;;;;;6.80;3.40;;;;;;;5.62;83.09;99564.00;6152984;23;19919;-65
2021/12/25 00:04:45;;;;;;;8.52;3.67;;;;;;;5.42;83.58;99561.50;6152867;23;20028;-66
2021/12/25 00:07:48;;;;;;;;;;;;;;;5.45;84.05;99569.13;6153778;23;20100;-65
2021/12/25 00:10:52;;;;;;;5.93;2.95;;;;;;;5.70;82.88;99567.06;6152188;23;19955;-65
2021/12/25 00:13:56;;;;;;;4.80;3.20;;;;;;;5.69;83.16;99539.47;6153335;23;20037;-65
2021/12/25 00:17:00;;;;;;;;;;;;;;;5.74;83.26;99532.31;6153184;23;20477;-65
2021/12/25 00:20:04;;;;;;;6.38;4.47;;;;;;;5.68;83.52;99530.00;6152517;23;19915;-65
2021/12/25 00:23:08;;;;;;;7.90;4.90;;;;;;;5.59;83.80;99530.44;6152310;23;20352;-65
2021/12/25 00:26:25;;;;;;;6.95;4.00;;;;;;;5.52;83.59;99526.44;6152798;23;20032;-70
2021/12/25 00:33:01;;;;;;;8.65;4.63;;;;;;;5.62;83.51;99529.47;6155138;23;20114;-67
2021/12/25 00:36:05;;;;;;;8.05;4.18;;;;;;;5.62;83.66;99521.69;6153474;23;20083;-67
2021/12/25 00:39:08;;;;;;;6.28;3.88;;;;;;;5.68;83.16;99524.81;6137342;23;20072;-67
2021/12/25 00:42:13;;;;;;;7.13;3.60;;;;;;;5.63;83.09;99526.78;6137158;23;20079;-67
2021/12/25 00:45:16;;;;;;;7.90;3.38;;;;;;;5.72;81.96;99528.94;6155185;23;20474;-67
2021/12/25 00:48:19;;;;;;;;;;;;;;;5.67;81.93;99530.06;6155467;23;20044;-68
2021/12/25 00:51:22;;;;;;;6.30;3.72;;;;;;;5.32;83.67;99529.97;6155133;23;19963;-68
2021/12/25 00:54:26;;;;;;;;;;;;;;;5.23;84.29;99536.44;6155542;23;20092;-68
2021/12/25 00:57:29;;;;;;;7.10;4.00;;;;;;;5.42;83.68;99527.78;6136757;23;20031;-68
2021/12/25 01:00:33;;;;;;;7.68;3.38;;;;;;;5.62;82.92;99532.91;6152823;23;20077;-68
2021/12/25 01:03:36;;;;;;;6.32;3.55;;;;;;;5.64;82.69;99538.81;6153974;23;20033;-68
2021/12/25 01:06:40;;;;;;;;;;;;;;;5.71;82.21;99529.88;6154683;23;20041;-68
2021/12/25 01:09:44;;;;;;;7.38;3.00;;;;;;;5.56;82.39;99530.59;6136484;23;20377;-68
2021/12/25 01:50:20;;;;;;;5.90;2.60;;;;;;;5.57;81.73;99522.72;6153409;23;20080;-67
2021/12/25 01:53:23;;;;;;;6.43;2.90;;;;;;;5.63;81.20;99520.75;6136395;23;20028;-68
2021/12/25 01:56:27;;;;;;;;;;;;;;;5.57;81.47;99524.47;6154949;23;20083;-68
2021/12/25 01:59:30;;;;;;;7.43;2.45;;;;;;;5.51;82.21;99519.59;6135145;23;19919;-68
2021/12/25 02:02:34;;;;;;;7.53;2.40;;;;;;;5.50;81.99;99516.16;6136075;23;20031;-68
2021/12/25 02:05:38;;;;;;;5.28;3.13;;;;;;;5.59;82.08;99514.88;6136436;23;20029;-68
2021/12/25 02:08:43;;;;;;;5.65;3.03;;;;;;;5.49;82.65;99516.25;6135936;23;20084;-68
2021/12/25 02:11:47;;;;;;;6.72;2.90;;;;;;;5.53;82.49;99516.00;6154211;23;20025;-68
2021/12/25 02:14:52;;;;;;;6.88;2.63;;;;;;;5.52;82.42;99516.06;6135938;23;20027;-68
2021/12/25 02:21:39;;;;;;;4.88;2.40;;;;;;;5.50;82.18;99502.34;6131769;23;20490;-68
2021/12/25 02:24:42;;;;;;;4.13;3.00;;;;;;;5.49;82.16;99505.88;6094564;23;20036;-68
2021/12/25 02:27:45;;;;;;;;;;;;;;;5.42;82.89;99507.06;6097911;23;20057;-68
2021/12/25 02:30:52;;;;;;;9.60;2.95;;;;;;;5.46;82.19;99501.66;6097394;23;20081;-68
2021/12/25 02:33:55;;;;;;;5.75;2.58;;;;;;;5.39;83.05;99508.03;6096473;23;20073;-68
2021/12/25 02:36:58;;;;;;;6.80;2.72;;;;;;;5.33;83.14;99506.59;6097331;23;20491;-68
2021/12/25 02:40:03;;;;;;;6.13;2.28;;;;;;;5.43;82.78;99506.16;6095995;23;20029;-68
2021/12/25 02:43:06;;;;;;;8.40;2.97;;;;;;;5.44;82.33;99506.06;6096275;23;20110;-68
2021/12/25 02:46:11;;;;;;;5.13;2.25;;;;;;;5.45;82.44;99510.34;6096087;23;20033;-68
2021/12/25 02:49:14;;;;;;;7.03;2.42;;;;;;;5.53;81.90;99499.63;6113126;23;20025;-68
2021/12/25 02:52:18;;;;;;;7.97;2.33;;;;;;;5.60;81.33;99486.28;6096224;23;20029;-68
2021/12/25 02:55:22;;;;;;;4.43;2.63;;;;;;;5.51;82.37;99489.31;6095669;23;20503;-68
2021/12/25 02:58:31;;;;;;;5.05;2.97;;;;;;;5.43;82.61;99486.25;6079745;23;20073;-68
2021/12/25 03:01:35;;;;;;;5.57;2.30;;;;;;;5.32;83.62;99494.53;6096008;23;20029;-68
2021/12/25 03:04:41;;;;;;;4.18;2.67;;;;;;;5.32;83.64;99489.34;6094650;23;20029;-68
2021/12/25 03:07:45;;;;;;;6.50;2.05;;;;;;;5.49;83.08;99490.31;6096792;23;20025;-68
2021/12/25 03:10:49;;;;;;;6.18;1.45;;;;;;;5.57;82.15;99493.38;6095858;23;20026;-68
2021/12/25 03:13:57;;;;;;;3.13;1.65;;;;;;;5.55;81.61;99495.19;6096864;23;20543;-68
2021/12/25 03:17:04;;;;;;;5.43;2.45;;;;;;;5.38;82.97;99487.38;6095990;23;20025;-68
2021/12/25 03:20:09;;;;;;;7.70;2.33;;;;;;;5.25;83.81;99485.38;6095870;23;20475;-68
2021/12/25 03:23:17;;;;;;;6.28;2.70;;;;;;;5.28;83.95;99485.22;6108620;23;20077;-68
2021/12/25 03:26:20;;;;;;;5.15;2.03;;;;;;;5.41;83.17;99488.06;6126100;23;20372;-68
2021/12/25 03:29:25;;;;;;;5.25;2.65;;;;;;;5.48;82.79;99488.63;6125706;23;20029;-68
2021/12/25 03:32:29;;;;;;;5.75;2.15;;;;;;;5.47;82.98;99490.38;6125006;23;20096;-68
2021/12/25 03:35:34;;;;;;;4.82;2.17;;;;;;;5.52;82.49;99496.19;6125064;23;20077;-68
2021/12/25 03:38:37;;;;;;;3.78;1.80;;;;;;;5.65;82.37;99496.44;6126408;23;20036;-68
2021/12/25 03:41:41;;;;;;;4.35;2.50;;;;;;;5.57;82.72;99481.22;6125086;23;20028;-68
2021/12/25 03:44:45;;;;;;;5.93;2.25;;;;;;;5.51;83.32;99494.50;6125956;23;20089;-68
2021/12/25 03:47:51;;;;;;;7.28;2.20;;;;;;;5.39;83.86;99489.06;6125827;23;20056;-68
2021/12/25 03:57:54;;;;;;;6.18;2.03;;;;;;;5.51;83.30;99498.84;6141679;23;20384;-68
2021/12/25 04:01:12;;;;;;;5.50;2.13;;;;;;;5.58;82.37;99492.44;6124570;23;20060;-68
2021/12/25 04:10:53;;;;;;;2.70;1.58;;;;;;;5.38;84.21;99508.13;6141687;23;20028;-68
2021/12/25 04:13:57;;;;;;;4.45;1.92;;;;;;;5.51;83.69;99507.47;6124905;23;20407;-68
2021/12/25 04:17:03;;;;;;;4.35;2.10;;;;;;;5.47;83.89;99508.53;6141926;23;20029;-68
2021/12/25 04:20:08;;;;;;;4.78;2.35;;;;;;;5.49;84.73;99511.06;6124875;23;20048;-68
2021/12/25 04:23:21;;;;;;;3.70;2.03;;;;;;;5.47;84.71;99510.28;6138583;23;20028;-68
2021/12/25 04:26:25;;;;;;;4.18;2.75;;;;;;;5.59;83.90;99510.53;6137049;23;20028;-68
2021/12/25 04:29:37;;;;;;;5.72;3.05;;;;;;;5.61;84.68;99513.03;6136962;23;20082;-68
2021/12/25 04:33:21;;;;;;;6.70;3.88;;;;;;;5.62;85.23;99519.94;6133455;23;20028;-68
2021/12/25 04:47:43;;;;;;;9.32;4.05;;;;;;;5.88;84.65;99512.63;6149196;23;20028;-68
2021/12/25 05:06:53;;;;;;;3.85;2.45;;;;;;;5.60;84.47;99527.75;6150579;23;20014;-68
2021/12/25 05:09:58;;;;;;;5.55;3.00;;;;;;;5.69;83.79;99539.47;6149231;23;20076;-68
2021/12/25 05:13:03;;;;;;;3.40;2.35;;;;;;;5.56;84.10;99538.38;6136565;23;20079;-68
2021/12/25 05:16:06;;;;;;;;;;;;;;;5.65;83.90;99537.94;6155154;23;20028;-68
2021/12/25 05:19:09;;;;;;;3.13;2.17;;;;;;;5.65;83.61;99527.56;6153995;23;19993;-68
2021/12/25 05:22:15;;;;;;;;;;;;;;;5.72;83.20;99536.72;6136451;23;20024;-68
2021/12/25 05:25:18;;;;;;;3.30;2.28;;;;;;;5.69;82.88;99534.28;6136231;23;19932;-68
2021/12/25 05:28:38;;;;;;;3.92;1.70;;;;;;;5.46;83.48;99526.75;6135992;23;20024;-68
2021/12/25 05:31:41;;;;;;;3.30;2.17;;;;;;;5.50;83.60;99526.53;6136390;23;20028;-68
2021/12/25 05:34:53;;;;;;;8.90;6.05;;;;;;;5.48;83.68;99532.69;6132562;23;20064;-68
2021/12/25 05:38:33;;;;;;;4.28;2.60;;;;;;;5.57;83.05;99535.69;6066785;23;20138;-69
2021/12/25 05:41:53;;;;;;;3.72;1.45;;;;;;;5.60;82.68;99534.72;6135508;23;20062;-68
2021/12/25 05:45:00;;;;;;;2.47;1.20;;;;;;;5.27;82.91;99543.16;6135828;23;20031;-68
2021/12/25 05:48:03;;;;;;;;;;;;;;;5.29;82.73;99533.53;6154326;23;20108;-68
2021/12/25 05:51:24;;;;;;;2.90;2.03;;;;;;;5.43;82.45;99538.09;6136082;23;19915;-68
2021/12/25 05:54:47;;;;;;;3.08;1.90;;;;;;;5.47;82.61;99543.97;6123886;23;20028;-68
2021/12/25 05:57:58;;;;;;;5.13;1.95;;;;;;;5.39;82.95;99540.91;6153967;23;20360;-68
2021/12/25 06:01:30;;;;;;;2.40;1.30;;;;;;;5.44;82.59;99537.19;6147059;23;20040;-68
2021/12/25 06:04:40;;;;;;;2.20;1.17;;;;;;;5.39;82.53;99530.53;6123826;23;20028;-67
2021/12/25 06:07:46;;;;;;;2.75;1.30;;;;;;;5.41;82.28;99528.72;6132533;23;20087;-68
2021/12/25 06:18:42;;;;;;;2.47;1.50;;;;;;;5.46;81.82;99537.13;6166950;22;20033;-69
2021/12/25 06:22:34;;;;;;;2.20;1.45;;;;;;;5.08;82.50;99548.34;6225982;23;20464;-69
2021/12/25 06:25:57;;;;;;;2.40;1.13;;;;;;;5.17;82.67;99552.28;6240494;23;20031;-69
2021/12/25 06:29:05;;;;;;;2.10;1.05;;;;;;;5.21;82.10;99551.22;6222188;23;20208;-68
2021/12/25 06:32:37;;;;;;;1.92;0.93;;;;;;;5.37;81.82;99538.38;6239731;23;20027;-71
2021/12/25 06:35:59;;;;;;;1.92;0.98;;;;;;;5.25;81.94;99541.53;6240511;23;20082;-71
2021/12/25 06:39:31;;;;;;;1.80;0.70;;;;;;;5.15;81.21;99559.28;6163071;23;20113;-71
2021/12/25 06:42:45;;;;;;;1.70;0.77;;;;;;;5.11;81.35;99566.34;6221563;23;20059;-71
2021/12/25 06:45:48;;;;;;;1.90;0.60;;;;;;;5.27;80.08;99571.69;6221613;23;20242;-71
2021/12/25 06:48:53;;;;;;;1.38;0.70;;;;;;;5.16;80.37;99573.91;6221465;23;20024;-71
2021/12/25 06:52:26;;;;;;;1.92;0.82;;;;;;;5.18;80.40;99573.84;6144310;23;20525;-72
2021/12/25 06:55:52;;;;;;;1.85;0.90;;;;;;;5.18;79.84;99584.22;6220451;23;20564;-71
2021/12/25 06:59:10;;;;;;;1.88;0.70;;;;;;;5.10;80.43;99585.38;6241409;23;20027;-71
2021/12/25 07:02:18;;;;;;;1.70;0.80;;;;;;;5.02;80.77;99584.06;6224958;23;20078;-71
2021/12/25 07:05:40;;;;;;;1.42;0.70;;;;;;;4.95;80.84;99587.84;6245164;23;20480;-71
2021/12/25 07:12:11;;;;;;;1.88;1.15;;;;;;;4.96;80.58;99598.13;6185552;22;20024;-70
2021/12/25 07:15:23;;;;;;;4.43;1.10;;;;;;;4.49;81.75;99607.91;6191406;23;20027;-70
2021/12/25 07:22:58;;;;;;;1.38;0.60;;;;;;;4.66;81.13;99634.78;6184179;23;20410;-70
2021/12/25 07:26:17;;;;;;;2.15;0.70;;;;;;;4.54;81.02;99640.47;6191140;23;20364;-70
2021/12/25 07:29:32;;;;;;;1.73;0.80;;;;;;;4.53;80.38;99640.53;6191212;23;20469;-70
2021/12/25 07:32:36;;;;;;;;;;;;;;;4.63;80.21;99640.09;6210150;23;20030;-70
2021/12/25 07:35:40;;;;;;;2.30;0.85;;;;;;;4.70;80.10;99656.22;6210450;23;19915;-70
2021/12/25 07:38:43;;;;;;;;;;;;;;;4.56;80.50;99655.94;6210673;23;20023;-69
2021/12/25 07:41:47;;;;;;;2.28;0.77;;;;;;;4.72;79.96;99663.91;6210696;23;19918;-69
2021/12/25 07:45:07;;;;;;;1.60;0.77;;;;;;;4.51;80.90;99669.09;6192681;23;20147;-69
2021/12/25 07:48:10;;;;;;;2.00;0.85;;;;;;;4.63;80.52;99667.75;6210695;23;20074;-69
2021/12/25 07:51:13;;;;;;;1.77;0.90;;;;;;;4.64;80.00;99682.38;6209748;23;20078;-69
2021/12/25 07:54:16;;;;;;;;;;;;;;;4.21;80.02;99678.91;6210402;23;20031;-69
2021/12/25 07:57:20;;;;;;;1.85;0.98;;;;;;;4.32;80.29;99689.69;6209465;23;19914;-69
2021/12/25 08:00:24;;;;;;;2.20;1.00;;;;;;;4.47;80.34;99689.97;6209669;23;20079;-69
2021/12/25 08:03:27;;;;;;;3.05;1.05;;;;;;;4.58;79.48;99685.22;6210287;23;20388;-69
2021/12/25 08:06:32;;;;;;;1.77;0.82;;;;;;;4.61;79.54;99695.44;6209870;23;20032;-72
2021/12/25 08:09:37;;;;;;;2.00;1.00;;;;;;;4.37;80.05;99702.44;6210493;23;20695;-70
2021/12/25 08:12:43;;;;;;;2.20;1.10;;;;;;;4.53;79.68;99702.66;6183673;23;20088;-69
2021/12/25 08:15:46;;;;;;;2.08;1.02;;;;;;;4.59;79.34;99694.66;6185202;23;20107;-69
2021/12/25 08:18:49;;;;;;;1.80;0.90;;;;;;;4.22;79.88;99701.31;6185298;23;20024;-68
2021/12/25 08:22:31;;;;;;;2.40;1.52;;;;;;;4.37;79.80;99697.25;6185165;23;20355;-68
2021/12/25 08:25:52;;;;;;;4.88;2.60;;;;;;;4.39;79.36;99705.81;6179714;23;20036;-68
2021/12/25 08:29:15;;;;;;;4.93;2.63;;;;;;;4.36;78.83;99711.13;6180446;23;20480;-67
2021/12/25 08:32:38;;;;;;;3.40;1.67;;;;;;;4.25;78.78;99715.88;6179644;23;20036;-71
2021/12/25 08:36:00;;;;;;;5.38;3.25;;;;;;;4.19;79.97;99716.97;6181630;23;20061;-74
2021/12/25 08:39:05;;;;;;;16.83;11.65;;;;;;;4.29;79.80;99726.03;6181250;23;20143;-75
2021/12/25 08:42:10;;;;;;;4.28;2.30;;;;;;;4.37;78.13;99726.59;6181435;23;20473;-70
2021/12/25 08:48:37;;;;;;;;;;;;;;;4.19;78.89;99732.47;6183670;23;20028;-67
2021/12/25 08:51:41;;;;;;;5.65;3.75;;;;;;;4.19;79.01;99729.91;6182165;23;19915;-67
2021/12/25 08:54:44;;;;;;;4.40;2.05;;;;;;;4.13;79.63;99736.16;6181869;23;20402;-72
2021/12/25 08:57:49;;;;;;;2.25;1.10;;;;;;;4.30;78.45;99742.41;6181563;23;20783;-69
2021/12/25 09:00:57;;;;;;;2.03;1.00;;;;;;;4.41;77.75;99742.84;6180832;23;20076;-69
2021/12/25 09:04:01;;;;;;;2.47;1.20;;;;;;;4.44;77.40;99750.50;6181004;23;20028;-68
2021/12/25 09:07:06;;;;;;;2.20;1.30;;;;;;;4.47;77.46;99752.09;6181079;23;20152;-69
2021/12/25 09:10:09;;;;;;;2.25;1.40;;;;;;;4.36;77.37;99758.53;6180843;23;20721;-68
2021/12/25 09:13:12;;;;;;;7.25;1.23;;;;;;;4.30;77.38;99761.34;6180986;23;20031;-67
2021/12/25 09:16:16;;;;;;;3.03;1.50;;;;;;;4.26;77.52;99766.72;6181453;23;20527;-67
2021/12/25 09:19:19;;;;;;;;;;;;;;;4.13;77.24;99774.13;6181778;23;20055;-67
2021/12/25 09:26:30;;;;;;;2.00;1.10;;;;;;;4.24;77.51;99776.28;6180237;23;20031;-68
2021/12/25 09:29:35;;;;;;;1.95;0.90;;;;;;;4.19;77.88;99779.06;6179668;23;20040;-68
2021/12/25 09:32:38;;;;;;;2.85;1.30;;;;;;;4.10;76.87;99782.00;6180770;23;20028;-68
2021/12/25 09:35:42;;;;;;;2.35;1.00;;;;;;;4.08;77.46;99791.53;6177727;23;20028;-68
2021/12/25 09:38:45;;;;;;;;;;;;;;;4.14;77.66;99781.81;6180423;23;20071;-68
2021/12/25 09:45:26;;;;;;;2.05;0.95;;;;;;;3.49;79.97;99788.47;6192169;22;20338;-65
2021/12/25 09:48:29;;;;;;;2.28;1.20;;;;;;;3.29;81.06;99792.63;6210497;23;20048;-65
2021/12/25 09:51:34;;;;;;;4.07;1.40;;;;;;;3.34;80.86;99789.00;6209445;23;20050;-65
2021/12/25 09:54:38;;;;;;;3.40;1.65;;;;;;;3.33;80.78;99797.66;6210398;23;20100;-66
2021/12/25 09:57:42;;;;;;;2.40;1.33;;;;;;;3.22;80.04;99799.75;6205029;23;20027;-65
2021/12/25 10:00:48;;;;;;;2.25;1.30;;;;;;;3.33;79.74;99800.25;6209319;23;20030;-65
2021/12/25 10:11:01;;;;;;;2.70;1.25;;;;;;;3.04;81.29;99798.66;6147932;23;20040;-68
2021/12/25 10:14:05;;;;;;;4.47;1.58;;;;;;;3.06;81.03;99806.31;6143035;23;20028;-66
2021/12/25 10:17:25;;;;;;;;;;;;;;;3.13;80.31;99803.50;6148065;23;20025;-65
2021/12/25 10:20:31;;;;;;;2.58;1.40;;;;;;;3.08;80.70;99805.38;6151693;23;20340;-66
2021/12/25 10:23:36;;;;;;;2.70;1.55;;;;;;;3.18;80.85;99808.50;6147996;23;20056;-66
2021/12/25 10:26:42;;;;;;;2.63;1.77;;;;;;;3.17;80.73;99815.41;6149537;23;20522;-66
2021/12/25 10:29:47;;;;;;;2.40;1.10;;;;;;;3.09;80.32;99812.22;6148377;23;20150;-66
2021/12/25 10:32:51;;;;;;;2.15;1.30;;;;;;;3.12;80.06;99813.88;6148590;23;20027;-66
2021/12/25 10:35:58;;;;;;;2.22;1.50;;;;;;;3.07;80.57;99821.78;6148787;23;20027;-65
2021/12/25 10:39:44;;;;;;;2.30;1.40;;;;;;;2.98;80.15;99804.84;6148433;23;20136;-67
2021/12/25 10:43:21;;;;;;;3.40;1.83;;;;;;;2.50;82.04;99815.84;6126436;23;20036;-65
2021/12/25 10:46:25;;;;;;;3.05;1.88;;;;;;;2.69;81.87;99807.53;6149069;23;20028;-66
2021/12/25 10:49:31;;;;;;;;;;;;;;;2.80;80.64;99805.44;6151163;23;20024;-66
2021/12/25 10:52:42;;;;;;;2.63;1.02;;;;;;;2.85;80.52;99811.31;6149628;23;19935;-68
2021/12/25 10:55:45;;;;;;;1.75;0.90;;;;;;;2.88;79.96;99795.72;6155273;23;20075;-66
2021/12/25 10:58:49;;;;;;;;;;;;;;;2.89;79.22;99805.16;6155821;23;20024;-66
2021/12/25 11:01:53;;;;;;;1.95;0.82;;;;;;;2.79;79.39;99809.75;6154581;23;19957;-66
2021/12/25 11:04:57;;;;;;;3.20;1.33;;;;;;;2.67;80.43;99811.88;6155455;23;20028;-66
2021/12/25 11:08:08;;;;;;;1.90;1.00;;;;;;;2.80;79.54;99813.19;6169572;23;20027;-66
2021/12/25 11:11:16;;;;;;;2.65;1.00;;;;;;;2.79;79.74;99809.75;6215427;23;20391;-65
2021/12/25 11:14:21;;;;;;;2.20;0.90;;;;;;;2.76;80.09;99812.44;6215768;23;20023;-65
2021/12/25 11:17:27;;;;;;;2.33;1.00;;;;;;;2.66;79.40;99802.47;6215785;23;20028;-65
2021/12/25 11:20:34;;;;;;;2.50;0.98;;;;;;;2.63;79.14;99800.81;6215097;23;20051;-65
2021/12/25 11:23:37;;;;;;;2.58;1.05;;;;;;;2.64;79.43;99804.22;6214425;23;20031;-65
2021/12/25 11:26:44;;;;;;;1.63;0.80;;;;;;;2.63;79.02;99818.03;6215746;23;20059;-66
2021/12/25 11:29:49;;;;;;;2.05;0.80;;;;;;;2.65;78.94;99814.53;6216141;23;20032;-68
2021/12/25 11:32:54;;;;;;;2.65;1.10;;;;;;;2.43;79.27;99821.25;6215820;23;20456;-65
2021/12/25 11:36:00;;;;;;;2.53;0.93;;;;;;;2.47;79.38;99823.66;6215746;23;20032;-68
2021/12/25 11:39:05;;;;;;;1.90;0.80;;;;;;;2.48;79.28;99822.75;6215563;23;20077;-68
2021/12/25 11:42:10;;;;;;;4.25;1.08;;;;;;;2.46;79.13;99829.72;6215597;23;20516;-69
2021/12/25 11:45:14;;;;;;;1.70;0.70;;;;;;;2.46;78.39;99827.16;6215576;23;20026;-68
2021/12/25 11:48:20;;;;;;;1.83;0.98;;;;;;;2.45;78.76;99834.91;6215461;23;20295;-68
2021/12/25 11:51:29;;;;;;;1.98;0.65;;;;;;;2.28;79.04;99844.00;6215409;23;20450;-68
2021/12/25 11:58:00;;;;;;;1.88;0.60;;;;;;;2.41;79.06;99841.91;6215345;23;20027;-68
2021/12/25 12:01:25;;;;;;;1.55;0.68;;;;;;;2.45;78.70;99847.81;6215393;23;20477;-68
2021/12/25 12:04:28;;;;;;;2.17;0.80;;;;;;;2.48;77.90;99842.56;6215521;23;20098;-68
2021/12/25 12:08:06;;;;;;;2.33;0.98;;;;;;;2.29;77.98;99843.09;6214901;23;20051;-69
2021/12/25 12:12:09;;;;;;;3.13;0.95;;;;;;;2.04;78.81;99837.84;6123301;23;20033;-69
2021/12/25 12:15:45;;;;;;;1.38;0.55;;;;;;;2.26;78.72;99829.47;6145444;23;20027;-69
2021/12/25 12:19:37;;;;;;;3.05;0.88;;;;;;;2.38;78.46;99829.09;6215230;23;20039;-69
2021/12/25 12:23:05;;;;;;;1.48;0.57;;;;;;;2.36;78.38;99837.78;6215195;23;20059;-69
2021/12/25 12:26:12;;;;;;;3.08;0.75;;;;;;;2.21;78.87;99839.09;6215229;23;20027;-69
2021/12/25 12:29:40;;;;;;;2.15;0.88;;;;;;;2.15;78.21;99841.84;6215171;23;20461;-68
2021/12/25 12:32:45;;;;;;;5.40;2.65;;;;;;;2.21;78.34;99854.56;6215021;23;20474;-68
2021/12/25 12:35:53;;;;;;;2.90;1.73;;;;;;;2.08;79.21;99860.06;6214974;23;20027;-69
2021/12/25 12:39:18;;;;;;;2.08;0.70;;;;;;;2.09;77.89;99851.44;6214994;23;20023;-69
2021/12/25 12:42:46;;;;;;;2.80;1.50;;;;;;;2.08;77.93;99856.63;6214986;23;20071;-68
2021/12/25 12:45:53;;;;;;;5.95;3.22;;;;;;;1.77;78.75;99859.22;6215028;23;20023;-68
2021/12/25 12:49:07;;;;;;;2.38;1.10;;;;;;;1.93;78.64;99855.31;6214884;23;20397;-68
2021/12/25 12:52:24;;;;;;;2.00;0.88;;;;;;;2.00;78.00;99851.69;6214953;23;20031;-68
2021/12/25 12:55:31;;;;;;;2.13;0.90;;;;;;;2.07;78.05;99858.38;6215011;23;20080;-68
2021/12/25 12:58:34;;;;;;;2.03;0.70;;;;;;;2.00;77.80;99856.00;6214813;23;20522;-68
2021/12/25 13:01:37;;;;;;;3.38;0.95;;;;;;;1.82;78.21;99852.22;6214890;23;20050;-68
2021/12/25 13:04:58;;;;;;;;;;;;;;;1.88;77.17;99852.00;6215451;23;20078;-68
2021/12/25 13:08:36;;;;;;;2.13;0.80;;;;;;;1.72;77.13;99853.31;6212851;23;19965;-68
2021/12/25 13:11:54;;;;;;;2.20;1.00;;;;;;;1.54;77.73;99864.97;6171047;23;20484;-68
2021/12/25 13:14:59;;;;;;;1.65;0.80;;;;;;;1.57;78.00;99873.47;6214035;23;20051;-68
2021/12/25 13:18:04;;;;;;;2.45;1.10;;;;;;;1.65;77.31;99878.41;6214592;23;20023;-68
2021/12/25 13:21:14;;;;;;;2.20;1.10;;;;;;;1.49;77.84;99885.69;6214291;23;20027;-68
2021/12/25 13:24:18;;;;;;;3.00;1.48;;;;;;;1.51;77.81;99881.34;6214705;23;20136;-68
2021/12/25 13:27:22;;;;;;;3.45;1.25;;;;;;;1.39;78.92;99894.53;6214572;23;20354;-68
2021/12/25 13:30:25;;;;;;;;;;;;;;;1.51;77.01;99894.22;6215138;23;20027;-68
2021/12/25 13:33:31;;;;;;;3.55;1.10;;;;;;;1.57;77.90;99891.50;6214710;23;19954;-68
2021/12/25 13:36:35;;;;;;;3.15;1.55;;;;;;;1.65;77.52;99899.03;6214440;23;20023;-68
2021/12/25 13:39:40;;;;;;;3.55;1.50;;;;;;;1.48;77.85;99899.47;6214638;23;20074;-68
2021/12/25 13:42:44;;;;;;;2.78;1.10;;;;;;;1.53;77.30;99897.63;6214714;23;20024;-68
2021/12/25 13:45:55;;;;;;;3.95;1.15;;;;;;;1.59;77.62;99900.03;6214515;23;20032;-68
2021/12/25 13:48:58;;;;;;;2.58;1.00;;;;;;;1.46;77.32;99893.50;6214251;23;20027;-68
2021/12/25 13:52:08;;;;;;;1.90;0.90;;;;;;;1.48;77.87;99891.72;6214425;23;20480;-67
2021/12/25 13:55:15;;;;;;;2.50;1.45;;;;;;;1.48;78.21;99889.16;6213118;23;20023;-68
2021/12/25 13:58:18;;;;;;;2.10;1.17;;;;;;;1.29;77.56;99888.78;6214396;23;20480;-68
2021/12/25 14:01:22;;;;;;;2.35;1.30;;;;;;;1.42;78.45;99889.31;6214478;23;20409;-68
2021/12/25 14:04:25;;;;;;;2.67;1.23;;;;;;;1.46;77.50;99887.50;6214824;23;20521;-68
2021/12/25 14:07:28;;;;;;;6.22;3.70;;;;;;;1.19;77.96;99899.34;6214154;23;20027;-69
2021/12/25 14:10:34;;;;;;;3.42;1.60;;;;;;;1.24;78.51;99906.03;6214533;23;20078;-68
2021/12/25 14:13:40;;;;;;;2.30;1.38;;;;;;;1.47;77.66;99902.94;6214381;23;20028;-68
2021/12/25 14:16:43;;;;;;;2.50;1.30;;;;;;;1.55;77.26;99906.16;6214359;23;20028;-68
2021/12/25 14:19:46;;;;;;;4.05;1.60;;;;;;;1.43;77.24;99916.75;6214403;23;20408;-68
2021/12/25 14:23:01;;;;;;;3.72;1.63;;;;;;;1.47;77.44;99918.41;6216394;23;20079;-68
2021/12/25 14:26:04;;;;;;;2.38;1.20;;;;;;;1.31;78.06;99917.06;6216263;23;20055;-68
2021/12/25 14:29:28;;;;;;;3.10;1.30;;;;;;;1.24;77.91;99916.34;6216082;23;20023;-68
2021/12/25 14:32:32;;;;;;;2.42;1.35;;;;;;;1.24;78.04;99925.81;6216148;23;20482;-68
2021/12/25 14:35:41;;;;;;;3.78;2.00;;;;;;;1.30;77.66;99920.50;6198234;23;20082;-69
2021/12/25 14:38:48;;;;;;;3.38;1.50;;;;;;;1.28;77.43;99930.03;6216272;23;20027;-67
2021/12/25 14:41:51;;;;;;;3.88;1.60;;;;;;;1.35;77.14;99929.84;6215620;23;20024;-67
2021/12/25 14:44:58;;;;;;;10.20;5.78;;;;;;;1.38;77.04;99932.34;6215926;23;20059;-67
2021/12/25 14:48:02;;;;;;;5.95;3.80;;;;;;;1.47;77.65;99930.41;6216334;23;20039;-67
2021/12/25 14:51:08;;;;;;;7.32;2.30;;;;;;;1.48;77.17;99934.69;6216311;23;20114;-67
2021/12/25 14:54:12;;;;;;;8.43;1.85;;;;;;;1.33;77.41;99941.88;6215990;23;20069;-67
2021/12/25 14:57:26;;;;;;;3.08;1.90;;;;;;;1.38;77.78;99940.06;6215683;23;20031;-67
2021/12/25 15:00:30;;;;;;;2.30;1.42;;;;;;;1.17;77.73;99946.56;6214822;23;20020;-67
2021/12/25 15:03:34;;;;;;;2.70;1.60;;;;;;;1.00;78.09;99950.41;6216008;23;20027;-67
2021/12/25 15:06:48;;;;;;;3.65;2.15;;;;;;;1.21;78.07;99952.47;6215737;23;20078;-67
2021/12/25 15:09:55;;;;;;;2.97;1.50;;;;;;;1.28;78.17;99948.06;6197505;23;20078;-68
2021/12/25 15:12:58;;;;;;;2.92;1.90;;;;;;;1.21;78.04;99949.06;6215798;23;20023;-68
2021/12/25 15:16:02;;;;;;;4.80;2.17;;;;;;;1.20;78.37;99947.38;6215831;23;20354;-68
2021/12/25 15:19:07;;;;;;;4.47;1.70;;;;;;;1.18;78.74;99944.81;6215877;23;20019;-67
2021/12/25 15:22:15;;;;;;;4.03;2.00;;;;;;;1.07;78.75;99939.94;6215950;23;20027;-68
2021/12/25 15:25:21;;;;;;;3.80;2.13;;;;;;;1.16;79.18;99947.44;6215818;23;20031;-68
2021/12/25 15:28:24;;;;;;;3.55;2.10;;;;;;;1.03;79.21;99951.19;6215658;23;20462;-68
2021/12/25 15:31:29;;;;;;;5.72;2.30;;;;;;;1.14;79.04;99953.50;6215649;23;20080;-68
2021/12/25 15:34:32;;;;;;;5.15;1.52;;;;;;;1.13;78.74;99964.69;6215633;23;20027;-68
2021/12/25 15:37:40;;;;;;;3.58;1.42;;;;;;;1.04;78.65;99958.00;6215749;23;20114;-67
2021/12/25 15:40:46;;;;;;;3.78;1.67;;;;;;;1.14;78.04;99964.66;6215670;23;20047;-67
2021/12/25 15:43:49;;;;;;;3.65;1.65;;;;;;;1.17;78.22;99966.31;6215497;23;20027;-67
2021/12/25 15:46:52;;;;;;;3.88;1.60;;;;;;;1.03;78.58;99974.34;6215529;23;20101;-67
2021/12/25 15:49:56;;;;;;;2.97;1.50;;;;;;;1.04;78.19;99976.03;6215710;23;20024;-68
2021/12/25 15:53:00;;;;;;;4.63;2.08;;;;;;;1.03;78.70;99979.50;6215507;23;20027;-67
2021/12/25 15:56:04;;;;;;;3.90;1.98;;;;;;;0.97;78.99;99982.22;6215390;23;20023;-68
2021/12/25 15:59:08;;;;;;;2.63;1.40;;;;;;;0.99;78.08;99983.03;6215333;23;20043;-68
2021/12/25 16:02:15;;;;;;;5.78;2.30;;;;;;;1.03;78.30;99988.97;6215449;23;20058;-68
2021/12/25 16:05:19;;;;;;;7.95;2.97;;;;;;;0.98;79.03;99989.03;6215279;23;20024;-67
2021/12/25 16:08:22;;;;;;;3.83;1.63;;;;;;;0.91;78.82;99990.91;6214938;23;20027;-67
2021/12/25 16:11:25;;;;;;;3.60;1.85;;;;;;;0.92;79.15;99996.91;6215230;23;20047;-67
2021/12/25 16:14:29;;;;;;;;;;;;;;;0.86;79.83;99999.59;6215761;23;20024;-68
2021/12/25 16:17:32;;;;;;;5.80;1.98;;;;;;;0.98;79.52;99996.75;6215288;23;19950;-68
2021/12/25 16:20:35;;;;;;;3.45;2.08;;;;;;;0.99;78.91;100001.06;6215230;23;20580;-67
2021/12/25 16:23:38;;;;;;;3.30;1.95;;;;;;;0.77;79.11;99999.81;6215178;23;20027;-68
2021/12/25 16:26:42;;;;;;;3.40;2.03;;;;;;;0.78;79.68;100007.47;6215015;23;20024;-67
2021/12/25 16:29:45;;;;;;;3.33;1.80;;;;;;;0.75;78.87;100012.69;6215059;23;20028;-67
2021/12/25 16:32:48;;;;;;;2.95;1.80;;;;;;;0.74;78.49;100017.88;6215045;23;20027;-67
2021/12/25 16:35:52;;;;;;;4.10;2.28;;;;;;;0.88;78.35;100018.44;6215107;23;20023;-67
2021/12/25 16:38:56;;;;;;;;;;;;;;;0.93;78.02;100014.06;6215563;23;20520;-67
2021/12/25 16:42:00;;;;;;;4.88;2.65;;;;;;;0.83;78.25;100012.53;6214842;23;19929;-67
2021/12/25 16:45:05;;;;;;;5.13;2.58;;;;;;;0.73;78.60;100018.75;6214347;23;20092;-67
2021/12/25 16:48:09;;;;;;;3.85;2.30;;;;;;;0.82;78.00;100013.41;6214876;23;20023;-67
2021/12/25 16:51:14;;;;;;;4.55;2.20;;;;;;;0.83;78.75;100015.09;6215067;23;20490;-67
2021/12/25 16:54:17;;;;;;;3.90;2.40;;;;;;;0.92;77.54;100022.63;6215021;23;20027;-67
2021/12/25 16:57:40;;;;;;;4.07;2.78;;;;;;;0.95;77.59;100022.56;6214697;23;20363;-67
2021/12/25 17:00:44;;;;;;;3.70;1.88;;;;;;;1.01;77.61;100019.88;6214910;23;20040;-67
2021/12/25 17:03:46;;;;;;;5.00;2.85;;;;;;;0.84;77.23;100020.22;6214784;23;20079;-67
2021/12/25 17:06:50;;;;;;;5.35;3.50;;;;;;;0.80;77.38;100017.72;6214746;23;20027;-67